createdAt,value
2022-12-09T00:00:27.905Z,100273.34
2022-12-09T00:02:54.548Z,100274.53
2022-12-09T00:05:21.524Z,100275.34
2022-12-09T00:07:48.354Z,100274.13
2022-12-09T00:10:15.218Z,100274.13
2022-12-09T00:12:42.083Z,100274.53
2022-12-09T00:15:08.998Z,100281.53
2022-12-09T00:17:35.713Z,100277.41
2022-12-09T00:20:02.576Z,100273.94
2022-12-09T00:22:29.369Z,100269.41
2022-12-09T00:24:55.956Z,100268.59
2022-12-09T00:27:22.629Z,100271.25
2022-12-09T00:29:49.120Z,100267.16
2022-12-09T00:32:16.086Z,100272.28
2022-12-09T00:34:43.096Z,100274.94
2022-12-09T00:37:09.627Z,100282.72
2022-12-09T00:39:36.508Z,100280.47
2022-12-09T00:42:03.899Z,100277.41
2022-12-09T00:44:30.390Z,100280.69
2022-12-09T00:46:57.019Z,100277.63
2022-12-09T00:49:24.770Z,100279.66
2022-12-09T00:51:54.062Z,100284.19
2022-12-09T00:54:21.687Z,100282.75
2022-12-09T00:56:48.349Z,100283.97
2022-12-09T00:59:14.845Z,100282.94
2022-12-09T01:01:41.987Z,100288.69
2022-12-09T01:04:09.030Z,100287.03
2022-12-09T01:06:35.785Z,100289.50
2022-12-09T01:09:03.489Z,100295.22
2022-12-09T01:11:30.747Z,100296.63
2022-12-09T01:14:02.645Z,100290.50
2022-12-09T01:16:33.501Z,100292.75
2022-12-09T01:19:02.648Z,100294.81
2022-12-09T01:21:31.481Z,100304.41
2022-12-09T01:23:58.207Z,100302.38
2022-12-09T01:26:25.335Z,100295.00
2022-12-09T01:28:53.069Z,100307.91
2022-12-09T01:31:23.106Z,100306.06
2022-12-09T01:33:50.141Z,100306.88
2022-12-09T01:36:20.331Z,100302.63
2022-12-09T01:38:48.601Z,100317.53
2022-12-09T01:41:17.169Z,100313.22
2022-12-09T01:43:45.307Z,100314.66
2022-12-09T01:46:12.331Z,100302.19
2022-12-09T01:48:46.461Z,100300.13
2022-12-09T01:51:17.473Z,100295.22
2022-12-09T01:53:47.693Z,100293.56
2022-12-09T01:56:21.880Z,100289.25
2022-12-09T01:58:49.768Z,100288.00
2022-12-09T02:01:18.175Z,100294.78
2022-12-09T02:03:45.008Z,100291.25
2022-12-09T02:06:12.708Z,100289.41
2022-12-09T02:08:40.297Z,100289.84
2022-12-09T02:11:26.094Z,100297.22
2022-12-09T02:14:29.608Z,100290.63
2022-12-09T02:17:25.984Z,100292.47
2022-12-09T02:20:03.228Z,100287.53
2022-12-09T02:22:40.457Z,100280.16
2022-12-09T02:25:21.782Z,100282.97
2022-12-09T02:28:25.875Z,100288.09
2022-12-09T02:31:12.007Z,100274.78
2022-12-09T02:34:13.618Z,100273.19
2022-12-09T02:36:59.607Z,100276.06
2022-12-09T02:39:35.432Z,100278.13
2022-12-09T02:42:06.274Z,100274.00
2022-12-09T02:44:37.913Z,100278.31
2022-12-09T02:47:08.783Z,100271.91
2022-12-09T02:49:37.834Z,100267.19
2022-12-09T02:52:07.005Z,100265.75
2022-12-09T02:54:37.317Z,100276.44
2022-12-09T02:57:12.282Z,100268.44
2022-12-09T02:59:38.909Z,100270.28
2022-12-09T03:02:20.155Z,100276.19
2022-12-09T03:05:01.894Z,100271.28
2022-12-09T03:07:42.149Z,100272.25
2022-12-09T03:10:31.143Z,100264.44
2022-12-09T03:13:06.357Z,100262.38
2022-12-09T03:15:37.355Z,100259.28
2022-12-09T03:18:09.254Z,100258.06
2022-12-09T03:20:40.826Z,100258.09
2022-12-09T03:23:11.505Z,100249.72
2022-12-09T03:25:43.234Z,100247.66
2022-12-09T03:28:17.141Z,100244.44
2022-12-09T03:30:46.018Z,100240.94
2022-12-09T03:33:15.943Z,100243.38
2022-12-09T03:35:46.860Z,100245.63
2022-12-09T03:38:17.203Z,100250.38
2022-12-09T03:40:46.436Z,100252.41
2022-12-09T03:43:19.177Z,100237.88
2022-12-09T03:45:46.595Z,100246.47
2022-12-09T03:48:13.916Z,100239.88
2022-12-09T03:50:49.483Z,100243.19
2022-12-09T03:53:21.440Z,100235.84
2022-12-09T03:55:55.626Z,100233.38
2022-12-09T03:58:22.102Z,100238.06
2022-12-09T04:00:49.442Z,100234.19
2022-12-09T04:03:18.276Z,100230.53
2022-12-09T04:05:45.650Z,100231.16
2022-12-09T04:08:12.460Z,100233.41
2022-12-09T04:10:40.387Z,100234.84
2022-12-09T04:13:07.344Z,100244.88
2022-12-09T04:15:34.100Z,100238.94
2022-12-09T04:18:00.731Z,100231.34
2022-12-09T04:20:27.439Z,100236.25
2022-12-09T04:22:53.914Z,100235.63
2022-12-09T04:25:20.361Z,100239.31
2022-12-09T04:27:48.780Z,100228.63
2022-12-09T04:30:17.108Z,100235.81
2022-12-09T04:32:44.275Z,100226.56
2022-12-09T04:35:11.326Z,100225.53
2022-12-09T04:37:37.969Z,100232.44
2022-12-09T04:40:08.558Z,100223.84
2022-12-09T04:42:35.986Z,100230.41
2022-12-09T04:45:03.038Z,100221.16
2022-12-09T04:47:29.661Z,100224.63
2022-12-09T04:49:56.408Z,100222.38
2022-12-09T04:52:24.053Z,100228.50
2022-12-09T04:54:51.084Z,100218.69
2022-12-09T04:57:18.711Z,100218.25
2022-12-09T04:59:45.833Z,100226.84
2022-12-09T05:02:12.830Z,100218.31
2022-12-09T05:04:40.347Z,100227.94
2022-12-09T05:07:07.109Z,100213.78
2022-12-09T05:09:34.304Z,100213.59
2022-12-09T05:12:01.091Z,100222.81
2022-12-09T05:14:28.079Z,100220.16
2022-12-09T05:16:54.736Z,100221.81
2022-12-09T05:19:21.868Z,100227.97
2022-12-09T05:21:48.769Z,100219.75
2022-12-09T05:24:16.103Z,100226.50
2022-12-09T05:26:42.874Z,100224.69
2022-12-09T05:29:09.873Z,100228.19
2022-12-09T05:31:36.586Z,100225.97
2022-12-09T05:34:03.945Z,100225.97
2022-12-09T05:36:31.159Z,100228.25
2022-12-09T05:38:57.924Z,100232.56
2022-12-09T05:41:25.386Z,100232.16
2022-12-09T05:43:52.104Z,100225.59
2022-12-09T05:46:19.852Z,100225.81
2022-12-09T05:48:46.858Z,100219.69
2022-12-09T05:51:26.588Z,100223.78
2022-12-09T05:53:54.888Z,100217.84
2022-12-09T05:56:23.346Z,100211.09
2022-12-09T05:58:51.000Z,100216.88
2022-12-09T06:01:18.103Z,100215.25
2022-12-09T06:03:50.310Z,100220.16
2022-12-09T06:06:19.828Z,100220.78
2022-12-09T06:08:47.286Z,100215.47
2022-12-09T06:11:19.781Z,100210.13
2022-12-09T06:13:47.810Z,100212.78
2022-12-09T06:16:17.542Z,100211.13
2022-12-09T06:18:44.510Z,100210.50
2022-12-09T06:21:13.533Z,100219.91
2022-12-09T06:23:42.300Z,100227.25
2022-12-09T06:26:16.039Z,100220.69
2022-12-09T06:28:42.911Z,100216.38
2022-12-09T06:31:09.678Z,100221.28
2022-12-09T06:33:54.184Z,100217.00
2022-12-09T06:36:22.722Z,100214.94
2022-12-09T06:38:49.553Z,100219.22
2022-12-09T06:41:16.470Z,100219.66
2022-12-09T06:43:43.967Z,100214.53
2022-12-09T06:46:16.356Z,100212.06
2022-12-09T06:48:43.589Z,100214.28
2022-12-09T06:51:11.258Z,100212.59
2022-12-09T06:53:38.026Z,100212.59
2022-12-09T06:56:11.795Z,100210.75
2022-12-09T06:58:39.783Z,100221.38
2022-12-09T07:01:13.798Z,100224.69
2022-12-09T07:03:45.833Z,100218.50
2022-12-09T07:06:40.275Z,100214.59
2022-12-09T07:09:13.442Z,100217.72
2022-12-09T07:11:42.621Z,100222.41
2022-12-09T07:14:10.759Z,100220.59
2022-12-09T07:16:38.382Z,100229.59
2022-12-09T07:19:06.205Z,100223.91
2022-12-09T07:21:33.943Z,100218.59
2022-12-09T07:24:02.877Z,100223.06
2022-12-09T07:26:33.773Z,100221.00
2022-12-09T07:29:05.130Z,100225.09
2022-12-09T07:31:32.723Z,100230.03
2022-12-09T07:34:00.072Z,100225.56
2022-12-09T07:36:29.584Z,100221.47
2022-12-09T07:39:05.588Z,100219.03
2022-12-09T07:41:32.417Z,100212.09
2022-12-09T07:43:59.222Z,100218.03
2022-12-09T07:46:27.577Z,100220.09
2022-12-09T07:48:55.446Z,100227.66
2022-12-09T07:51:24.352Z,100228.63
2022-12-09T07:53:52.461Z,100233.94
2022-12-09T07:56:20.227Z,100225.75
2022-12-09T07:58:48.922Z,100234.34
2022-12-09T08:01:19.049Z,100245.59
2022-12-09T08:03:47.194Z,100241.72
2022-12-09T08:06:17.204Z,100238.84
2022-12-09T08:08:45.316Z,100247.66
2022-12-09T08:11:24.453Z,100241.50
2022-12-09T08:13:52.452Z,100240.06
2022-12-09T08:16:21.487Z,100241.53
2022-12-09T08:18:49.778Z,100238.53
2022-12-09T08:21:19.694Z,100243.19
2022-12-09T08:23:47.248Z,100254.28
2022-12-09T08:26:16.131Z,100245.69
2022-12-09T08:28:45.056Z,100245.09
2022-12-09T08:31:24.596Z,100242.84
2022-12-09T08:33:52.565Z,100243.91
2022-12-09T08:36:22.489Z,100242.47
2022-12-09T08:38:49.435Z,100242.88
2022-12-09T08:41:37.735Z,100238.16
2022-12-09T08:44:08.783Z,100245.31
2022-12-09T08:46:37.208Z,100242.03
2022-12-09T08:49:05.373Z,100248.38
2022-12-09T08:51:33.270Z,100252.69
2022-12-09T08:54:01.254Z,100250.63
2022-12-09T08:56:28.522Z,100249.44
2022-12-09T08:58:56.481Z,100252.72
2022-12-09T09:01:26.263Z,100251.50
2022-12-09T09:03:53.760Z,100257.06
2022-12-09T09:06:20.982Z,100264.63
2022-12-09T09:08:47.933Z,100255.03
2022-12-09T09:11:18.240Z,100263.22
2022-12-09T09:13:47.867Z,100263.03
2022-12-09T09:16:17.591Z,100258.31
2022-12-09T09:18:45.604Z,100263.66
2022-12-09T09:21:15.396Z,100263.06
2022-12-09T09:23:43.100Z,100265.94
2022-12-09T09:26:15.243Z,100262.25
2022-12-09T09:28:42.674Z,100259.81
2022-12-09T09:31:14.325Z,100257.75
2022-12-09T09:33:41.764Z,100261.63
2022-12-09T09:36:14.166Z,100262.84
2022-12-09T09:38:41.148Z,100259.34
2022-12-09T09:41:20.223Z,100250.31
2022-12-09T09:43:47.841Z,100260.56
2022-12-09T09:46:24.440Z,100248.84
2022-12-09T09:48:53.038Z,100249.44
2022-12-09T09:51:21.177Z,100245.13
2022-12-09T09:53:51.332Z,100250.25
2022-12-09T09:56:45.783Z,100257.22
2022-12-09T09:59:34.893Z,100259.63
2022-12-09T10:02:12.005Z,100249.97
2022-12-09T10:04:51.101Z,100248.09
2022-12-09T10:07:38.584Z,100256.31
2022-12-09T10:10:13.534Z,100253.81
2022-12-09T10:13:17.980Z,100255.03
2022-12-09T10:16:18.930Z,100252.53
2022-12-09T10:19:04.174Z,100249.44
2022-12-09T10:21:40.255Z,100245.94
2022-12-09T10:24:27.139Z,100238.53
2022-12-09T10:27:12.659Z,100236.88
2022-12-09T10:29:49.944Z,100242.00
2022-12-09T10:32:21.366Z,100230.09
2022-12-09T10:34:48.733Z,100240.75
2022-12-09T10:37:36.092Z,100231.47
2022-12-09T10:40:13.201Z,100236.00
2022-12-09T10:43:05.706Z,100234.34
2022-12-09T10:46:07.962Z,100235.59
2022-12-09T10:48:37.637Z,100232.88
2022-12-09T10:51:11.593Z,100228.28
2022-12-09T10:53:55.971Z,100228.47
2022-12-09T10:56:25.985Z,100226.81
2022-12-09T10:59:25.671Z,100230.06
2022-12-09T11:02:11.091Z,100226.50
2022-12-09T11:04:40.679Z,100229.38
2022-12-09T11:07:08.028Z,100233.66
2022-12-09T11:09:37.946Z,100228.66
2022-12-09T11:12:07.941Z,100226.97
2022-12-09T11:14:39.026Z,100226.44
2022-12-09T11:17:24.311Z,100221.72
2022-12-09T11:19:54.252Z,100218.59
2022-12-09T11:22:28.316Z,100216.53
2022-12-09T11:25:27.230Z,100220.25
2022-12-09T11:27:59.077Z,100215.31
2022-12-09T11:30:30.681Z,100212.72
2022-12-09T11:33:08.770Z,100216.75
2022-12-09T11:35:45.102Z,100211.13
2022-12-09T11:38:23.030Z,100214.50
2022-12-09T11:41:07.497Z,100221.09
2022-12-09T11:43:54.284Z,100224.78
2022-12-09T11:46:29.768Z,100210.72
2022-12-09T11:49:03.186Z,100222.31
2022-12-09T11:51:36.233Z,100211.69
2022-12-09T11:54:22.038Z,100222.97
2022-12-09T11:56:50.222Z,100224.00
2022-12-09T11:59:22.505Z,100222.38
2022-12-09T12:02:29.549Z,100216.75
2022-12-09T12:05:03.462Z,100215.25
2022-12-09T12:07:43.959Z,100222.41
2022-12-09T12:10:22.488Z,100220.69
2022-12-09T12:13:02.393Z,100215.28
2022-12-09T12:15:46.997Z,100216.50
2022-12-09T12:18:19.395Z,100213.09
2022-12-09T12:21:07.752Z,100213.69
2022-12-09T12:23:34.168Z,100212.47
2022-12-09T12:26:15.926Z,100216.34
2022-12-09T12:29:07.459Z,100216.94
2022-12-09T12:31:59.316Z,100205.00
2022-12-09T12:34:44.863Z,100207.59
2022-12-09T12:37:57.436Z,100211.38
2022-12-09T12:40:48.291Z,100204.84
2022-12-09T12:43:48.955Z,100199.25
2022-12-09T12:46:30.678Z,100194.38
2022-12-09T12:49:15.886Z,100194.94
2022-12-09T12:52:47.298Z,100197.41
2022-12-09T12:55:43.737Z,100191.00
2022-12-09T12:58:28.893Z,100190.78
2022-12-09T13:01:01.153Z,100190.53
2022-12-09T13:03:38.473Z,100192.34
2022-12-09T13:06:08.968Z,100189.88
2022-12-09T13:08:41.657Z,100183.72
2022-12-09T13:11:16.879Z,100176.50
2022-12-09T13:14:07.010Z,100173.91
2022-12-09T13:16:41.262Z,100179.63
2022-12-09T13:19:20.556Z,100175.91
2022-12-09T13:21:47.789Z,100173.69
2022-12-09T13:24:37.724Z,100169.97
2022-12-09T13:27:24.222Z,100180.91
2022-12-09T13:30:15.279Z,100180.69
2022-12-09T13:33:08.427Z,100175.78
2022-12-09T13:35:44.887Z,100174.94
2022-12-09T13:38:32.690Z,100169.81
2022-12-09T13:40:59.386Z,100166.53
2022-12-09T13:43:28.527Z,100178.88
2022-12-09T13:45:58.349Z,100175.63
2022-12-09T13:48:24.774Z,100181.41
2022-12-09T13:51:00.322Z,100179.19
2022-12-09T13:53:33.635Z,100174.88
2022-12-09T13:56:06.732Z,100163.22
2022-12-09T13:59:12.858Z,100167.63
2022-12-09T14:01:48.304Z,100166.41
2022-12-09T14:04:31.200Z,100175.72
2022-12-09T14:07:30.748Z,100169.31
2022-12-09T14:09:58.035Z,100174.06
2022-12-09T14:12:28.183Z,100169.75
2022-12-09T14:15:05.018Z,100163.00
2022-12-09T14:17:31.382Z,100165.09
2022-12-09T14:20:23.851Z,100158.53
2022-12-09T14:23:08.247Z,100168.50
2022-12-09T14:25:34.582Z,100166.25
2022-12-09T14:28:10.476Z,100161.13
2022-12-09T14:31:04.802Z,100164.25
2022-12-09T14:33:37.678Z,100166.31
2022-12-09T14:36:24.446Z,100158.59
2022-12-09T14:39:27.410Z,100152.72
2022-12-09T14:42:18.387Z,100167.31
2022-12-09T14:45:08.947Z,100159.16
2022-12-09T14:47:42.015Z,100171.09
2022-12-09T14:50:15.780Z,100178.50
2022-12-09T14:53:01.934Z,100168.06
2022-12-09T14:55:30.303Z,100165.19
2022-12-09T14:57:59.927Z,100167.28
2022-12-09T15:00:39.009Z,100165.72
2022-12-09T15:03:33.289Z,100167.00
2022-12-09T15:06:05.921Z,100173.44
2022-12-09T15:08:37.961Z,100173.06
2022-12-09T15:11:13.786Z,100174.75
2022-12-09T15:13:43.048Z,100168.19
2022-12-09T15:16:12.818Z,100167.00
2022-12-09T15:18:42.084Z,100168.69
2022-12-09T15:21:09.355Z,100167.47
2022-12-09T15:23:39.018Z,100171.63
2022-12-09T15:26:18.276Z,100165.25
2022-12-09T15:28:48.619Z,100171.22
2022-12-09T15:31:21.236Z,100173.47
2022-12-09T15:33:52.769Z,100178.84
2022-12-09T15:36:27.292Z,100177.06
2022-12-09T15:39:02.165Z,100184.06
2022-12-09T15:42:03.702Z,100179.81
2022-12-09T15:44:33.411Z,100180.44
2022-12-09T15:47:08.465Z,100182.28
2022-12-09T15:49:45.524Z,100185.59
2022-12-09T15:52:16.883Z,100189.09
2022-12-09T15:54:44.623Z,100190.13
2022-12-09T15:57:16.551Z,100191.34
2022-12-09T15:59:47.759Z,100187.47
2022-12-09T16:02:25.255Z,100197.31
2022-12-09T16:04:54.971Z,100193.22
2022-12-09T16:07:25.095Z,100199.16
2022-12-09T16:10:09.157Z,100200.38
2022-12-09T16:12:36.540Z,100205.13
2022-12-09T16:15:05.692Z,100210.66
2022-12-09T16:17:37.840Z,100207.78
2022-12-09T16:20:44.008Z,100205.16
2022-12-09T16:23:24.899Z,100214.59
2022-12-09T16:25:55.246Z,100206.63
2022-12-09T16:28:27.239Z,100224.91
2022-12-09T16:31:02.697Z,100212.78
2022-12-09T16:33:34.110Z,100219.16
2022-12-09T16:36:03.933Z,100217.72
2022-12-09T16:38:32.678Z,100222.88
2022-12-09T16:41:08.544Z,100216.94
2022-12-09T16:43:35.935Z,100231.09
2022-12-09T16:46:28.237Z,100232.50
2022-12-09T16:48:54.634Z,100224.72
2022-12-09T16:51:24.876Z,100220.03
2022-12-09T16:53:53.539Z,100218.78
2022-12-09T16:56:28.822Z,100224.50
2022-12-09T16:58:56.496Z,100231.47
2022-12-09T17:01:31.752Z,100222.47
2022-12-09T17:04:02.541Z,100222.28
2022-12-09T17:06:29.085Z,100218.38
2022-12-09T17:08:56.306Z,100223.69
2022-12-09T17:11:22.903Z,100218.16
2022-12-09T17:13:50.141Z,100221.63
2022-12-09T17:16:17.397Z,100229.78
2022-12-09T17:18:44.257Z,100225.09
2022-12-09T17:21:13.131Z,100222.00
2022-12-09T17:23:41.276Z,100224.03
2022-12-09T17:26:13.338Z,100223.44
2022-12-09T17:28:42.935Z,100229.56
2022-12-09T17:31:19.460Z,100224.22
2022-12-09T17:33:46.128Z,100224.44
2022-12-09T17:36:14.497Z,100225.28
2022-12-09T17:38:42.745Z,100235.53
2022-12-09T17:41:13.364Z,100227.13
2022-12-09T17:43:39.818Z,100232.63
2022-12-09T17:46:06.871Z,100242.03
2022-12-09T17:48:35.561Z,100232.81
2022-12-09T17:51:10.900Z,100229.53
2022-12-09T17:53:39.232Z,100235.50
2022-12-09T17:56:20.145Z,100240.19
2022-12-09T17:58:48.005Z,100238.75
2022-12-09T18:01:19.932Z,100234.25
2022-12-09T18:03:55.928Z,100236.75
2022-12-09T18:06:22.771Z,100234.88
2022-12-09T18:08:49.494Z,100244.91
2022-12-09T18:11:16.166Z,100244.84
2022-12-09T18:13:42.850Z,100257.53
2022-12-09T18:16:16.060Z,100252.00
2022-12-09T18:18:43.539Z,100263.25
2022-12-09T18:21:15.552Z,100259.78
2022-12-09T18:23:43.133Z,100250.13
2022-12-09T18:26:13.066Z,100257.34
2022-12-09T18:28:40.023Z,100270.22
2022-12-09T18:31:15.368Z,100259.44
2022-12-09T18:33:43.166Z,100262.69
2022-12-09T18:36:13.473Z,100264.28
2022-12-09T18:38:41.790Z,100262.25
2022-12-09T18:41:13.645Z,100259.16
2022-12-09T18:43:43.045Z,100257.16
2022-12-09T18:46:16.092Z,100253.63
2022-12-09T18:48:43.474Z,100260.81
2022-12-09T18:51:18.811Z,100255.88
2022-12-09T18:53:46.160Z,100262.63
2022-12-09T18:56:13.850Z,100275.31
2022-12-09T18:59:04.860Z,100276.50
2022-12-09T19:01:29.961Z,100273.09
2022-12-09T19:04:00.202Z,100264.09
2022-12-09T19:06:32.953Z,100280.47
2022-12-09T19:09:02.461Z,100275.41
2022-12-09T19:11:32.551Z,100280.50
2022-12-09T19:13:59.762Z,100283.78
2022-12-09T19:16:27.772Z,100283.38
2022-12-09T19:18:54.574Z,100293.81
2022-12-09T19:21:22.792Z,100285.41
2022-12-09T19:23:49.799Z,100287.06
2022-12-09T19:26:19.506Z,100290.91
2022-12-09T19:28:48.865Z,100292.56
2022-12-09T19:31:25.010Z,100289.31
2022-12-09T19:33:55.833Z,100293.22
2022-12-09T19:36:23.591Z,100293.63
2022-12-09T19:38:50.891Z,100295.69
2022-12-09T19:41:18.449Z,100292.25
2022-12-09T19:43:46.104Z,100297.19
2022-12-09T19:46:14.562Z,100289.00
2022-12-09T19:48:46.739Z,100282.44
2022-12-09T19:51:16.207Z,100300.28
2022-12-09T19:53:43.745Z,100295.56
2022-12-09T19:56:20.504Z,100298.88
2022-12-09T19:58:47.447Z,100299.50
2022-12-09T20:01:20.795Z,100298.88
2022-12-09T20:03:49.916Z,100307.94
2022-12-09T20:06:19.616Z,100308.94
2022-12-09T20:08:47.159Z,100298.69
2022-12-09T20:11:19.764Z,100299.31
2022-12-09T20:13:46.723Z,100302.41
2022-12-09T20:16:16.344Z,100297.09
2022-12-09T20:18:43.790Z,100301.97
2022-12-09T20:21:13.034Z,100301.38
2022-12-09T20:23:41.073Z,100297.31
2022-12-09T20:26:12.001Z,100296.91
2022-12-09T20:28:40.054Z,100301.59
2022-12-09T20:31:08.859Z,100297.72
2022-12-09T20:33:36.273Z,100303.44
2022-12-09T20:36:12.305Z,100309.19
2022-12-09T20:38:39.957Z,100307.56
2022-12-09T20:41:09.899Z,100311.06
2022-12-09T20:43:40.353Z,100322.72
2022-12-09T20:46:09.270Z,100321.50
2022-12-09T20:48:36.929Z,100324.38
2022-12-09T20:51:08.385Z,100308.78
2022-12-09T20:53:35.946Z,100326.84
2022-12-09T20:56:03.859Z,100324.59
2022-12-09T20:58:30.597Z,100326.22
2022-12-09T21:01:04.827Z,100322.53
2022-12-09T21:03:31.324Z,100337.09
2022-12-09T21:05:58.438Z,100328.25
2022-12-09T21:08:31.080Z,100323.34
2022-12-09T21:11:04.260Z,100338.94
2022-12-09T21:13:31.146Z,100341.78
2022-12-09T21:16:10.081Z,100346.94
2022-12-09T21:18:37.063Z,100342.22
2022-12-09T21:21:04.477Z,100348.59
2022-12-09T21:23:34.909Z,100343.84
2022-12-09T21:26:21.549Z,100340.38
2022-12-09T21:28:48.687Z,100348.38
2022-12-09T21:31:18.284Z,100349.81
2022-12-09T21:33:46.231Z,100350.66
2022-12-09T21:36:15.425Z,100349.81
2022-12-09T21:38:42.570Z,100347.34
2022-12-09T21:41:15.711Z,100353.31
2022-12-09T21:43:43.428Z,100360.91
2022-12-09T21:46:20.828Z,100360.06
2022-12-09T21:48:51.998Z,100352.06
2022-12-09T21:51:19.708Z,100354.13
2022-12-09T21:53:46.985Z,100348.59
2022-12-09T21:56:26.643Z,100354.94
2022-12-09T21:58:55.559Z,100356.38
2022-12-09T22:01:23.607Z,100355.97
2022-12-09T22:03:50.329Z,100358.44
2022-12-09T22:06:17.632Z,100360.91
2022-12-09T22:08:45.453Z,100359.66
2022-12-09T22:11:18.758Z,100361.50
2022-12-09T22:13:45.974Z,100356.38
2022-12-09T22:16:24.279Z,100360.06
2022-12-09T22:18:53.530Z,100366.44
2022-12-09T22:21:25.227Z,100367.66
2022-12-09T22:23:58.333Z,100357.41
2022-12-09T22:26:25.815Z,100353.31
2022-12-09T22:28:52.929Z,100362.13
2022-12-09T22:31:25.678Z,100364.59
2022-12-09T22:33:54.508Z,100366.00
2022-12-09T22:36:22.299Z,100366.84
2022-12-09T22:38:49.581Z,100360.06
2022-12-09T22:41:19.828Z,100367.25
2022-12-09T22:43:46.428Z,100368.25
2022-12-09T22:46:17.567Z,100364.38
2022-12-09T22:48:44.451Z,100356.97
2022-12-09T22:51:16.367Z,100363.34
2022-12-09T22:53:43.616Z,100366.00
2022-12-09T22:56:12.342Z,100368.91
2022-12-09T22:58:39.398Z,100367.84
2022-12-09T23:01:12.184Z,100375.44
2022-12-09T23:03:39.135Z,100371.78
2022-12-09T23:06:06.347Z,100369.50
2022-12-09T23:08:33.130Z,100369.91
2022-12-09T23:11:05.119Z,100362.94
2022-12-09T23:13:33.894Z,100365.78
2022-12-09T23:16:05.687Z,100362.31
2022-12-09T23:18:33.888Z,100365.00
2022-12-09T23:21:12.181Z,100370.94
2022-12-09T23:23:39.808Z,100362.72
2022-12-09T23:26:09.331Z,100359.03
2022-12-09T23:28:41.180Z,100356.19
2022-12-09T23:31:10.039Z,100362.31
2022-12-09T23:33:38.621Z,100359.25
2022-12-09T23:36:07.617Z,100362.31
2022-12-09T23:38:35.098Z,100365.78
2022-12-09T23:41:02.389Z,100361.72
2022-12-09T23:43:36.983Z,100368.25
2022-12-09T23:46:14.476Z,100369.09
2022-12-09T23:48:42.740Z,100371.78
2022-12-09T23:51:16.577Z,100372.78
2022-12-09T23:53:44.655Z,100373.59
2022-12-09T23:56:15.741Z,100371.97
2022-12-09T23:58:43.264Z,100380.38
